Time;durP1;ratioP1;P1;durP2;ratioP2;P2;SDS_P1;SDS_P2;PMS_P1;PMS_P2;Temp;Humidity;BMP_temperature;BMP_pressure;BME280_temperature;BME280_humidity;BME280_pressure;Samples;Min_cycle;Max_cycle;Signal;HPM_P1;HPM_P2
2021/07/14 00:00:28;;;;;;;4.43;3.40;;;;;;;22.89;60.13;98683.38;5038982;28;20229;-88
2021/07/14 00:02:56;;;;;;;4.15;3.13;;;;;;;22.88;59.44;98692.69;5055529;28;20224;-86
2021/07/14 00:05:23;;;;;;;4.63;3.38;;;;;;;22.92;59.33;98709.22;5055412;28;20316;-85
2021/07/14 00:07:51;;;;;;;4.07;2.90;;;;;;;22.91;58.76;98715.81;5038920;28;20655;-88
2021/07/14 00:10:27;;;;;;;3.33;3.00;;;;;;;22.88;58.51;98706.34;5055062;28;20221;-89
2021/07/14 00:23:33;;;;;;;4.38;3.15;;;;;;;22.92;59.56;98710.03;5040314;28;20543;-90
2021/07/14 00:26:00;;;;;;;4.25;2.80;;;;;;;22.98;60.41;98729.78;5038139;28;20707;-86
2021/07/14 00:28:27;;;;;;;4.93;3.13;;;;;;;23.01;60.82;98737.31;5054037;28;20233;-85
2021/07/14 00:31:00;;;;;;;5.05;2.22;;;;;;;22.94;58.20;98735.09;5054409;28;20273;-87
2021/07/14 00:33:28;;;;;;;3.33;2.50;;;;;;;22.98;57.51;98741.50;5072207;28;20217;-85
2021/07/14 00:35:54;;;;;;;5.30;2.25;;;;;;;22.93;58.16;98740.88;5054000;28;20229;-89
2021/07/14 00:38:22;;;;;;;3.85;2.33;;;;;;;22.88;57.42;98736.38;5037488;28;20236;-86
2021/07/14 00:40:49;;;;;;;3.72;1.88;;;;;;;22.76;57.37;98730.75;5054524;28;20226;-87
2021/07/14 00:43:16;;;;;;;4.72;1.92;;;;;;;22.67;57.76;98719.00;5070896;28;20520;-89
2021/07/14 00:45:42;;;;;;;3.38;1.95;;;;;;;22.50;58.43;98724.44;5037747;28;20257;-88
2021/07/14 00:48:10;;;;;;;4.65;2.33;;;;;;;22.62;58.35;98744.53;5053666;28;20700;-86
2021/07/14 00:50:39;;;;;;;3.28;1.90;;;;;;;22.64;57.96;98745.00;5054382;28;20326;-90
2021/07/14 00:53:06;;;;;;;2.42;2.08;;;;;;;22.53;58.06;98743.72;5071119;28;20499;-85
2021/07/14 00:55:33;;;;;;;2.20;2.00;;;;;;;22.31;58.97;98743.81;5021553;28;20263;-88
2021/07/14 00:58:01;;;;;;;2.92;1.98;;;;;;;22.21;59.53;98741.41;5037241;28;20234;-89
2021/07/14 01:00:27;;;;;;;2.88;2.05;;;;;;;22.07;60.35;98727.09;5053727;28;20224;-90
2021/07/14 01:02:54;;;;;;;5.25;2.00;;;;;;;22.08;60.46;98751.31;5020819;28;20229;-86
2021/07/14 01:05:30;;;;;;;3.72;1.80;;;;;;;22.06;60.44;98748.09;5037043;28;20708;-90
2021/07/14 01:08:07;;;;;;;2.58;2.20;;;;;;;21.99;60.57;98728.66;5070659;28;20251;-88
2021/07/14 01:10:49;;;;;;;2.47;2.00;;;;;;;21.94;60.63;98731.50;5053724;28;20304;-86
2021/07/14 01:13:21;;;;;;;3.47;1.90;;;;;;;21.84;60.89;98742.66;5053811;28;20238;-89
2021/07/14 01:15:57;;;;;;;2.00;1.90;;;;;;;21.72;60.48;98717.94;5053839;28;20556;-88
2021/07/14 01:18:58;;;;;;;2.15;2.00;;;;;;;21.66;60.92;98740.97;5020609;28;20562;-86
2021/07/14 01:21:33;;;;;;;3.05;2.22;;;;;;;21.60;60.89;98745.78;5087079;28;20312;-88
2021/07/14 01:24:11;;;;;;;3.20;2.10;;;;;;;21.67;60.76;98740.69;5020938;28;20225;-90
2021/07/14 01:26:46;;;;;;;2.53;2.30;;;;;;;21.46;61.14;98745.06;5069852;28;20252;-86
2021/07/14 01:29:16;;;;;;;2.47;2.20;;;;;;;21.33;61.62;98740.47;5053544;28;20234;-89
2021/07/14 01:31:44;;;;;;;2.30;2.10;;;;;;;21.33;61.67;98751.38;5054181;28;20309;-87
2021/07/14 01:34:12;;;;;;;2.43;2.20;;;;;;;21.38;61.67;98760.22;5053370;28;20594;-87
2021/07/14 01:36:41;;;;;;;3.70;1.90;;;;;;;21.45;62.22;98755.16;5053701;28;20245;-86
2021/07/14 01:39:08;;;;;;;2.15;1.92;;;;;;;21.39;62.38;98739.25;5053577;28;20237;-89
2021/07/14 01:41:37;;;;;;;5.57;2.03;;;;;;;21.45;62.21;98747.00;5053648;28;20230;-87
2021/07/14 01:44:04;;;;;;;2.13;1.90;;;;;;;21.45;62.02;98730.63;5070121;28;20232;-87
2021/07/14 01:46:33;;;;;;;2.67;1.90;;;;;;;21.49;62.23;98741.72;5053207;28;20252;-86
2021/07/14 01:49:08;;;;;;;2.53;2.10;;;;;;;21.50;61.96;98737.88;5053522;28;20235;-87
2021/07/14 01:51:37;;;;;;;3.00;2.08;;;;;;;21.48;62.37;98727.28;5053697;28;20231;-86
2021/07/14 01:54:04;;;;;;;3.05;2.33;;;;;;;21.48;62.22;98702.75;5053328;28;20277;-89
2021/07/14 01:56:38;;;;;;;2.20;2.00;;;;;;;21.44;63.06;98704.50;5036890;28;20228;-87
2021/07/14 01:59:06;;;;;;;2.10;1.90;;;;;;;21.35;63.72;98717.28;5053548;28;20258;-86
2021/07/14 02:01:37;;;;;;;3.25;2.20;;;;;;;21.31;64.08;98710.03;5053394;28;20259;-86
2021/07/14 02:06:51;;;;;;;3.00;2.10;;;;;;;21.20;63.91;98703.22;5053458;28;20302;-88
2021/07/14 02:09:18;;;;;;;3.50;2.40;;;;;;;21.08;64.02;98690.97;5053655;28;20224;-88
2021/07/14 02:11:47;;;;;;;2.53;2.30;;;;;;;21.02;64.22;98691.38;5070087;28;20239;-86
2021/07/14 02:14:20;;;;;;;3.75;2.20;;;;;;;20.87;64.34;98681.69;5052788;28;20281;-88
2021/07/14 02:17:02;;;;;;;2.77;2.33;;;;;;;20.89;64.75;98693.06;5041901;28;20541;-88
2021/07/14 02:19:30;;;;;;;2.85;2.28;;;;;;;20.84;65.20;98693.19;5073721;28;20225;-90
2021/07/14 02:21:57;;;;;;;2.37;2.17;;;;;;;20.80;65.62;98689.50;5056879;28;20228;-86
2021/07/14 02:24:24;;;;;;;3.00;2.60;;;;;;;20.76;66.18;98695.84;5073180;28;20290;-88
2021/07/14 02:26:54;;;;;;;4.00;2.63;;;;;;;20.72;66.75;98692.91;5056744;28;20316;-86
2021/07/14 02:29:21;;;;;;;4.93;2.40;;;;;;;20.73;67.08;98699.97;5056781;28;20236;-89
2021/07/14 02:31:47;;;;;;;4.67;2.30;;;;;;;20.64;67.43;98694.47;5040293;28;20259;-89
2021/07/14 02:34:14;;;;;;;4.90;2.30;;;;;;;20.64;67.20;98705.34;5040040;28;20599;-85
2021/07/14 02:36:44;;;;;;;4.07;2.37;;;;;;;20.59;67.47;98708.19;5056488;28;20641;-87
2021/07/14 02:39:11;;;;;;;3.30;2.10;;;;;;;20.56;67.35;98702.56;5073316;28;20234;-88
2021/07/14 02:41:41;;;;;;;3.50;2.13;;;;;;;20.63;67.53;98702.94;5056544;28;20228;-89
2021/07/14 02:44:10;;;;;;;2.23;2.03;;;;;;;20.65;67.40;98706.16;5039836;28;20237;-87
2021/07/14 02:46:41;;;;;;;2.20;1.97;;;;;;;20.65;67.20;98695.28;5073242;28;20253;-88
2021/07/14 02:49:11;;;;;;;2.30;2.10;;;;;;;20.66;67.45;98710.50;5039936;28;20227;-88
2021/07/14 02:51:39;;;;;;;2.07;1.87;;;;;;;20.65;67.45;98706.97;5056490;28;20250;-87
2021/07/14 02:54:11;;;;;;;4.88;2.30;;;;;;;20.63;66.85;98701.03;5055949;28;20564;-89
2021/07/14 02:56:39;;;;;;;2.30;1.80;;;;;;;20.67;66.89;98705.88;5056279;28;20229;-89
2021/07/14 02:59:08;;;;;;;2.30;2.10;;;;;;;20.66;66.95;98726.84;5039525;28;20596;-87
2021/07/14 03:01:40;;;;;;;3.80;2.30;;;;;;;20.77;66.21;98785.34;5039497;28;20256;-89
2021/07/14 03:04:09;;;;;;;3.20;2.03;;;;;;;20.86;65.73;98848.84;5055779;28;20228;-90
2021/07/14 03:06:38;;;;;;;2.40;2.20;;;;;;;21.02;65.06;98892.91;5056194;28;20277;-89
2021/07/14 03:09:06;;;;;;;2.10;1.90;;;;;;;21.05;64.19;98878.66;5039748;28;20232;-89
2021/07/14 03:11:34;;;;;;;3.30;2.20;;;;;;;21.23;64.61;98876.97;5055875;28;20235;-89
2021/07/14 03:14:02;;;;;;;4.67;2.30;;;;;;;21.29;65.05;98876.53;5072506;28;20287;-86
2021/07/14 03:16:32;;;;;;;2.93;2.10;;;;;;;21.21;65.44;98855.47;5072620;28;20737;-86
2021/07/14 03:19:00;;;;;;;3.20;2.10;;;;;;;21.20;65.50;98779.50;5023026;28;20233;-87
2021/07/14 03:21:31;;;;;;;4.97;2.13;;;;;;;21.29;66.22;98725.88;5055780;28;20252;-90
2021/07/14 03:24:04;;;;;;;4.23;2.27;;;;;;;21.19;66.38;98721.50;5072726;28;20256;-88
2021/07/14 03:26:31;;;;;;;3.47;2.00;;;;;;;21.17;66.68;98737.34;5071594;28;20691;-90
2021/07/14 03:28:59;;;;;;;3.37;2.30;;;;;;;21.05;67.74;98743.31;5039055;28;20247;-90
2021/07/14 03:31:26;;;;;;;4.47;2.20;;;;;;;20.95;68.53;98724.50;5039095;28;20234;-90
2021/07/14 03:33:53;;;;;;;7.70;2.33;;;;;;;20.94;67.96;98719.38;5072369;28;20279;-88
2021/07/14 03:36:20;;;;;;;2.73;2.40;;;;;;;20.85;70.45;98723.94;5038497;28;20292;-87
2021/07/14 03:38:47;;;;;;;2.90;2.13;;;;;;;20.69;70.25;98726.22;5055580;28;20312;-89
2021/07/14 03:41:14;;;;;;;3.80;2.30;;;;;;;20.69;71.57;98747.19;5038853;28;20569;-87
2021/07/14 03:43:41;;;;;;;6.20;3.27;;;;;;;20.44;72.47;98759.41;5055389;28;20230;-92
2021/07/14 03:46:09;;;;;;;4.67;2.67;;;;;;;20.46;73.10;98768.09;5054890;28;20278;-92
2021/07/14 03:48:36;;;;;;;5.23;2.80;;;;;;;20.30;73.94;98731.38;5054912;28;20311;-88
2021/07/14 03:51:04;;;;;;;3.77;2.87;;;;;;;20.29;74.60;98711.56;5038807;28;20362;-89
2021/07/14 03:53:31;;;;;;;5.63;3.10;;;;;;;20.25;75.25;98694.22;5055452;28;20238;-88
2021/07/14 03:55:58;;;;;;;4.07;3.00;;;;;;;20.17;75.27;98673.19;5054846;28;20307;-90
2021/07/14 03:58:25;;;;;;;4.63;3.00;;;;;;;20.05;76.05;98681.09;5054895;28;20240;-88
2021/07/14 04:00:53;;;;;;;5.57;3.43;;;;;;;19.89;76.41;98691.47;5054893;28;20239;-89
2021/07/14 04:03:24;;;;;;;5.53;3.27;;;;;;;19.93;76.89;98738.66;5071874;28;20313;-88
2021/07/14 04:05:58;;;;;;;4.40;3.00;;;;;;;19.95;77.29;98796.28;5055189;28;20263;-87
2021/07/14 04:08:28;;;;;;;5.73;3.47;;;;;;;19.92;77.76;98862.13;5054730;28;20321;-88
2021/07/14 04:10:55;;;;;;;8.23;4.17;;;;;;;19.97;79.59;98932.69;5038640;28;20239;-90
2021/07/14 04:13:22;;;;;;;8.70;4.33;;;;;;;19.98;80.51;98862.81;5038833;28;20228;-94
2021/07/14 04:15:49;;;;;;;8.00;4.37;;;;;;;19.85;81.24;98695.91;5038584;28;20310;-87
2021/07/14 04:18:16;;;;;;;7.83;4.77;;;;;;;19.18;83.05;98653.94;5045252;28;20335;-88
2021/07/14 04:20:43;;;;;;;8.63;5.03;;;;;;;19.12;84.60;98687.72;5042787;28;20275;-90
2021/07/14 04:23:10;;;;;;;10.93;5.77;;;;;;;19.22;85.35;98710.06;5058642;28;20240;-96
2021/07/14 04:25:49;;;;;;;8.13;5.10;;;;;;;19.25;84.21;98731.22;5060545;28;20237;-96
2021/07/14 04:28:20;;;;;;;8.83;4.67;;;;;;;19.13;84.72;98719.22;5064331;28;20217;-95
2021/07/14 04:30:47;;;;;;;8.77;4.97;;;;;;;19.16;84.06;98708.56;5063639;28;20244;-90
2021/07/14 04:33:14;;;;;;;11.97;4.63;;;;;;;19.17;83.92;98720.22;5041464;28;20221;-95
2021/07/14 04:35:43;;;;;;;7.40;4.40;;;;;;;19.20;84.06;98734.00;5056209;28;20226;-96
2021/07/14 04:38:10;;;;;;;7.80;5.10;;;;;;;19.22;84.57;98779.88;5037337;28;20279;-96
2021/07/14 04:40:37;;;;;;;6.27;4.80;;;;;;;19.30;84.70;98788.16;5054551;28;20299;-95
2021/07/14 04:43:04;;;;;;;9.90;5.00;;;;;;;19.31;84.70;98748.22;5021692;28;20241;-94
2021/07/14 04:45:31;;;;;;;9.20;4.73;;;;;;;19.36;84.89;98773.38;5038469;28;20230;-93
2021/07/14 04:47:58;;;;;;;7.43;4.80;;;;;;;19.45;84.58;98778.19;5059027;28;20241;-95
2021/07/14 04:50:26;;;;;;;8.37;4.60;;;;;;;19.46;83.98;98766.19;5058011;28;20225;-93
2021/07/14 04:52:53;;;;;;;8.13;4.60;;;;;;;19.46;83.75;98783.28;5054650;28;20238;-95
2021/07/14 04:55:20;;;;;;;8.20;4.23;;;;;;;19.59;83.14;98751.84;5071694;28;20307;-96
2021/07/14 04:57:46;;;;;;;6.90;3.93;;;;;;;19.93;80.40;98738.66;5038610;28;20241;-96
2021/07/14 05:00:16;;;;;;;4.30;3.70;;;;;;;20.09;81.72;98744.63;5022761;28;20249;-96
2021/07/14 05:02:47;;;;;;;6.27;3.83;;;;;;;20.40;79.89;98800.03;5057002;28;20242;-96
2021/07/14 05:05:14;;;;;;;6.93;3.30;;;;;;;20.57;79.49;98830.16;5039460;28;20245;-94
2021/07/14 05:07:42;;;;;;;4.97;3.10;;;;;;;20.48;78.97;98803.97;5038544;28;20250;-94
2021/07/14 05:10:10;;;;;;;4.40;2.80;;;;;;;20.47;77.91;98819.50;5020953;28;20231;-96
2021/07/14 05:12:37;;;;;;;4.53;2.40;;;;;;;20.86;77.70;98832.50;5054474;28;20245;-94
2021/07/14 05:15:04;;;;;;;3.77;2.20;;;;;;;21.21;76.15;98830.94;5053576;28;20240;-94
2021/07/14 05:17:31;;;;;;;4.43;2.17;;;;;;;21.45;75.52;98827.94;5053541;28;20232;-96
2021/07/14 05:19:58;;;;;;;4.53;2.30;;;;;;;21.82;75.16;98834.91;5037499;28;20244;-91
2021/07/14 05:22:24;;;;;;;3.77;1.93;;;;;;;22.11;73.18;98818.88;5036889;28;20290;-96
2021/07/14 05:24:51;;;;;;;3.50;2.10;;;;;;;22.45;73.16;98828.28;5036942;28;20304;-88
2021/07/14 05:27:18;;;;;;;3.50;2.20;;;;;;;22.73;71.60;98841.41;5037190;28;20238;-90
2021/07/14 05:29:45;;;;;;;5.17;2.17;;;;;;;22.89;69.67;98843.69;5037252;28;20237;-92
2021/07/14 05:32:11;;;;;;;4.67;2.20;;;;;;;23.01;69.26;98819.28;5034866;28;20317;-87
2021/07/14 05:34:38;;;;;;;4.03;2.03;;;;;;;23.24;69.08;98802.41;5037594;28;20312;-96
2021/07/14 05:37:05;;;;;;;3.22;1.95;;;;;;;23.37;66.28;98810.78;5053927;28;20232;-93
2021/07/14 05:39:31;;;;;;;2.17;1.40;;;;;;;23.68;65.14;98814.94;5037813;28;20315;-92
2021/07/14 05:41:58;;;;;;;2.93;1.33;;;;;;;23.61;64.25;98797.41;5036899;28;20283;-96
2021/07/14 05:44:25;;;;;;;2.00;1.43;;;;;;;23.67;64.89;98794.19;5035762;28;20339;-94
2021/07/14 05:46:52;;;;;;;3.13;1.27;;;;;;;23.97;63.82;98805.19;5036960;28;20247;-94
2021/07/14 05:49:20;;;;;;;2.25;1.15;;;;;;;24.73;62.89;98811.44;5037125;28;20222;-96
2021/07/14 05:51:47;;;;;;;2.78;1.10;;;;;;;25.28;60.80;98802.19;5057633;28;20648;-96
2021/07/14 05:54:14;;;;;;;1.25;0.85;;;;;;;25.80;58.95;98825.25;5073590;28;20230;-91
2021/07/14 05:56:40;;;;;;;0.60;0.60;;;;;;;26.09;55.44;98827.03;5040816;28;20431;-95
2021/07/14 05:59:07;;;;;;;2.22;0.73;;;;;;;25.91;57.46;98822.06;5073532;28;20708;-92
2021/07/14 06:01:34;;;;;;;3.92;0.75;;;;;;;25.64;56.75;98849.00;5040716;28;20588;-94
2021/07/14 06:04:01;;;;;;;0.63;0.63;;;;;;;25.32;58.11;98841.50;5073332;28;20319;-91
2021/07/14 06:06:28;;;;;;;1.17;0.75;;;;;;;25.05;58.62;98845.59;5039256;28;20292;-95
2021/07/14 06:08:55;;;;;;;0.77;0.60;;;;;;;24.81;59.30;98859.09;5040783;28;20232;-95
2021/07/14 06:11:22;;;;;;;1.30;0.70;;;;;;;24.59;61.58;98857.44;5040675;28;20234;-93
2021/07/14 06:13:49;;;;;;;0.70;0.70;;;;;;;24.51;59.53;98866.50;5024288;28;20257;-95
2021/07/14 06:16:16;;;;;;;0.98;0.60;;;;;;;24.29;61.19;98875.78;5040026;28;20244;-94
2021/07/14 06:18:43;;;;;;;0.85;0.65;;;;;;;24.07;62.02;98879.53;5040649;28;20288;-94
2021/07/14 06:21:10;;;;;;;1.85;0.77;;;;;;;23.97;62.12;98882.59;5039839;28;20236;-88
2021/07/14 06:23:37;;;;;;;0.95;0.60;;;;;;;23.85;63.01;98867.97;5040510;28;20251;-94
2021/07/14 06:26:04;;;;;;;0.70;0.60;;;;;;;23.79;62.77;98872.03;5056283;28;20231;-95
2021/07/14 06:28:31;;;;;;;1.52;0.70;;;;;;;23.85;62.47;98862.50;5040402;28;20233;-95
2021/07/14 06:31:02;;;;;;;1.00;0.60;;;;;;;23.94;62.80;98866.00;5057052;28;20619;-94
2021/07/14 06:33:29;;;;;;;0.75;0.70;;;;;;;23.95;61.85;98875.84;5040635;28;20229;-93
2021/07/14 06:35:56;;;;;;;0.90;0.47;;;;;;;23.81;63.20;98900.66;5056673;28;20239;-94
2021/07/14 06:38:23;;;;;;;0.60;0.50;;;;;;;23.67;63.64;98875.41;5039929;28;20235;-92
2021/07/14 06:40:50;;;;;;;0.50;0.50;;;;;;;23.78;62.94;98892.28;5023860;28;20234;-94
2021/07/14 06:43:18;;;;;;;0.88;0.52;;;;;;;23.64;63.04;98890.53;5023863;28;20241;-93
2021/07/14 06:45:45;;;;;;;1.50;0.55;;;;;;;;;;5040502;28;20640;-91
2021/07/14 06:48:12;;;;;;;1.05;0.60;;;;;;;23.37;66.91;98901.78;5055766;28;20233;-94
2021/07/14 06:50:39;;;;;;;0.60;0.50;;;;;;;23.14;68.03;98894.84;5040255;28;20226;-95
2021/07/14 06:53:06;;;;;;;0.85;0.60;;;;;;;22.90;67.83;98862.50;5039747;28;20238;-95
2021/07/14 06:55:33;;;;;;;0.60;0.60;;;;;;;22.47;68.56;98878.72;5039997;28;20249;-93
2021/07/14 06:58:00;;;;;;;1.88;0.60;;;;;;;22.09;70.44;98885.75;5039504;28;20523;-88
2021/07/14 07:00:28;;;;;;;3.30;0.73;;;;;;;22.05;71.50;98885.59;5023387;28;20523;-92
2021/07/14 07:02:55;;;;;;;0.85;0.70;;;;;;;21.92;72.55;98878.28;5039058;28;20229;-92
2021/07/14 07:05:22;;;;;;;1.17;0.80;;;;;;;21.76;72.86;98856.03;5039183;28;20221;-83
2021/07/14 07:07:49;;;;;;;1.42;0.85;;;;;;;21.66;73.65;98863.66;5055873;28;20533;-82
2021/07/14 07:10:15;;;;;;;0.70;0.70;;;;;;;21.38;72.33;98904.63;5055273;28;20284;-82
2021/07/14 07:12:42;;;;;;;2.72;0.80;;;;;;;21.17;74.30;98957.16;5055637;28;20308;-82
2021/07/14 07:15:10;;;;;;;4.18;1.50;;;;;;;21.27;74.77;99006.81;5055935;28;20253;-85
2021/07/14 07:17:38;;;;;;;4.65;1.83;;;;;;;21.25;75.32;98907.41;5055497;28;20244;-86
2021/07/14 07:20:05;;;;;;;5.90;2.33;;;;;;;21.05;76.79;98900.44;5038945;28;20675;-85
2021/07/14 07:22:32;;;;;;;5.20;2.10;;;;;;;21.02;78.07;98969.16;5056813;28;20225;-86
2021/07/14 07:25:00;;;;;;;3.87;1.47;;;;;;;21.18;77.10;99005.09;5039051;28;20315;-84
2021/07/14 07:27:33;;;;;;;2.73;1.57;;;;;;;21.41;76.35;99039.47;5055048;28;20701;-85
2021/07/14 07:30:00;;;;;;;2.80;1.30;;;;;;;21.83;74.99;99055.47;5073219;28;20590;-86
2021/07/14 07:32:27;;;;;;;3.77;1.40;;;;;;;22.48;73.48;99018.75;5038564;28;20253;-85
2021/07/14 07:34:54;;;;;;;2.87;1.47;;;;;;;23.14;70.51;98979.53;5038698;28;20640;-85
2021/07/14 07:37:20;;;;;;;4.30;1.27;;;;;;;23.25;69.09;98976.19;5038621;28;20230;-84
2021/07/14 07:39:48;;;;;;;2.70;1.47;;;;;;;23.73;67.62;98971.75;5038489;28;20239;-85
2021/07/14 07:42:15;;;;;;;3.57;1.40;;;;;;;23.90;67.54;98927.97;5054778;28;20319;-84
2021/07/14 07:44:43;;;;;;;2.50;1.10;;;;;;;24.15;66.63;98908.00;5068347;28;20621;-85
2021/07/14 07:47:10;;;;;;;1.30;1.02;;;;;;;24.56;65.58;98901.91;5054362;28;20305;-84
2021/07/14 07:49:38;;;;;;;1.13;1.00;;;;;;;24.05;64.01;98870.03;5054356;28;20233;-84
2021/07/14 07:52:24;;;;;;;2.30;1.20;;;;;;;23.18;68.33;98861.09;5054218;28;20636;-87
2021/07/14 07:54:51;;;;;;;1.30;0.93;;;;;;;23.11;68.22;98829.88;5054727;28;20239;-85
2021/07/14 07:57:18;;;;;;;2.30;1.13;;;;;;;23.51;67.63;98809.50;5055616;28;20643;-87
2021/07/14 07:59:45;;;;;;;1.97;1.10;;;;;;;23.46;67.89;98800.66;5054570;28;20230;-85
2021/07/14 08:02:11;;;;;;;1.67;1.30;;;;;;;23.38;68.70;98795.94;5055016;28;20225;-88
2021/07/14 08:04:38;;;;;;;1.25;1.02;;;;;;;23.32;68.51;98794.53;5054792;28;20313;-85
2021/07/14 08:07:05;;;;;;;2.83;1.20;;;;;;;22.93;69.68;98812.69;5054397;28;20550;-86
2021/07/14 08:09:32;;;;;;;2.03;1.33;;;;;;;23.37;69.04;98814.31;5037947;28;20255;-85
2021/07/14 08:12:01;;;;;;;2.20;1.50;;;;;;;23.78;67.87;98830.19;5054124;28;20670;-84
2021/07/14 08:14:27;;;;;;;1.80;1.35;;;;;;;23.74;66.34;98845.66;5053883;28;20278;-82
2021/07/14 08:16:54;;;;;;;3.42;1.38;;;;;;;23.93;65.63;98845.28;5037362;28;20313;-82
2021/07/14 08:19:23;;;;;;;2.43;1.60;;;;;;;23.73;65.63;98860.44;5037639;28;20233;-83
2021/07/14 08:21:50;;;;;;;2.67;1.52;;;;;;;23.59;65.72;98887.97;5021460;28;20228;-83
2021/07/14 08:24:18;;;;;;;3.72;1.90;;;;;;;23.31;66.66;98902.25;5053894;28;20240;-83
2021/07/14 08:26:44;;;;;;;3.08;1.80;;;;;;;23.05;68.47;98881.13;5037356;28;20407;-82
2021/07/14 08:29:31;;;;;;;4.32;2.00;;;;;;;22.88;69.65;98899.44;5053992;28;20252;-82
2021/07/14 08:31:58;;;;;;;3.35;1.88;;;;;;;23.04;68.30;98915.06;5053799;28;20225;-86
2021/07/14 08:34:25;;;;;;;2.60;1.58;;;;;;;23.07;67.76;98902.69;5037202;28;20236;-83
2021/07/14 08:36:52;;;;;;;4.18;2.25;;;;;;;23.51;68.26;98877.84;5037335;28;20510;-84
2021/07/14 08:39:20;;;;;;;3.10;1.90;;;;;;;24.24;64.86;98889.63;5053821;28;20228;-84
2021/07/14 08:41:48;;;;;;;3.40;2.10;;;;;;;24.66;63.48;98896.06;5054593;28;20663;-85
2021/07/14 08:44:15;;;;;;;2.90;2.10;;;;;;;25.07;61.97;98889.91;5053771;28;20625;-84
2021/07/14 08:46:42;;;;;;;3.28;2.30;;;;;;;25.10;61.56;98905.69;5049049;28;20540;-85
2021/07/14 08:49:09;;;;;;;4.90;2.20;;;;;;;25.20;61.71;98899.81;5061320;28;20240;-85
2021/07/14 08:51:37;;;;;;;2.72;2.35;;;;;;;25.09;61.71;98895.06;5047988;28;20275;-83
2021/07/14 08:54:04;;;;;;;2.83;2.15;;;;;;;24.97;62.05;98885.59;5034341;28;20307;-85
2021/07/14 08:56:32;;;;;;;4.03;2.30;;;;;;;24.69;62.79;98867.22;5026144;28;20230;-84
2021/07/14 08:59:00;;;;;;;3.75;2.50;;;;;;;24.16;64.02;98898.69;5061714;28;20710;-82
2021/07/14 09:01:27;;;;;;;3.40;2.40;;;;;;;24.35;64.67;98901.03;5034090;28;20248;-83
2021/07/14 09:03:54;;;;;;;2.85;2.20;;;;;;;24.51;64.00;98870.03;5017699;28;20237;-84
2021/07/14 09:06:21;;;;;;;2.85;2.33;;;;;;;25.19;62.26;98895.47;5016831;28;20247;-83
2021/07/14 09:08:48;;;;;;;2.40;2.17;;;;;;;25.49;62.38;98909.91;5033872;28;20313;-84
2021/07/14 09:11:15;;;;;;;2.35;2.10;;;;;;;25.80;60.96;98902.06;5033679;28;20233;-84
2021/07/14 09:13:42;;;;;;;4.35;1.90;;;;;;;26.27;60.76;98883.38;5035082;28;20312;-92
2021/07/14 09:16:09;;;;;;;2.80;2.00;;;;;;;26.70;60.65;98888.31;5017166;28;20226;-92
2021/07/14 09:18:36;;;;;;;2.63;1.88;;;;;;;26.83;57.89;98874.59;5048956;28;20225;-92
2021/07/14 09:21:16;;;;;;;2.85;1.88;;;;;;;26.96;57.93;98876.22;5032752;28;20240;-92
2021/07/14 09:23:43;;;;;;;2.55;1.48;;;;;;;27.36;56.40;98854.22;5017039;28;20643;-93
2021/07/14 09:26:12;;;;;;;2.67;1.40;;;;;;;27.68;55.95;98839.47;5052652;28;20228;-93
2021/07/14 09:28:39;;;;;;;2.25;1.45;;;;;;;27.41;55.04;98823.72;5037286;28;20222;-94
2021/07/14 09:31:08;;;;;;;3.05;1.42;;;;;;;27.17;55.72;98811.66;5037283;28;20228;-94
2021/07/14 09:33:37;;;;;;;3.83;1.55;;;;;;;27.12;57.55;98824.84;5053903;28;20240;-94
2021/07/14 09:36:04;;;;;;;2.38;1.35;;;;;;;27.13;57.80;98848.44;5036866;28;20255;-94
2021/07/14 09:38:33;;;;;;;1.55;1.30;;;;;;;26.92;56.07;98845.06;5037403;28;20694;-94
2021/07/14 09:41:06;;;;;;;2.47;1.30;;;;;;;26.53;56.76;98852.03;5037512;28;20242;-94
2021/07/14 09:43:38;;;;;;;3.38;1.52;;;;;;;26.60;56.04;98850.31;5037583;28;20222;-94
2021/07/14 09:46:10;;;;;;;2.85;1.77;;;;;;;26.76;56.19;98866.13;5036856;28;20240;-93
2021/07/14 09:48:55;;;;;;;2.75;1.45;;;;;;;27.30;55.33;98877.63;5036986;28;20644;-94
2021/07/14 09:51:23;;;;;;;2.35;1.35;;;;;;;27.88;53.84;98885.25;5037203;28;20263;-94
2021/07/14 09:53:53;;;;;;;4.13;1.73;;;;;;;28.29;52.29;98872.97;5053825;28;20540;-95
2021/07/14 09:56:23;;;;;;;3.45;1.98;;;;;;;28.37;51.11;98866.47;5036619;28;20614;-95
2021/07/14 09:59:07;;;;;;;2.15;1.50;;;;;;;28.69;50.28;98848.00;5037034;28;20236;-93
2021/07/14 10:01:49;;;;;;;3.15;1.80;;;;;;;29.07;49.64;98839.00;5053229;28;20250;-91
2021/07/14 10:04:26;;;;;;;1.85;1.60;;;;;;;29.30;48.63;98836.41;5053009;28;20229;-94
2021/07/14 10:07:06;;;;;;;2.78;1.60;;;;;;;29.65;47.48;98861.16;5037513;28;20232;-93
2021/07/14 10:09:33;;;;;;;3.05;1.90;;;;;;;29.92;47.42;98864.84;5037100;28;20284;-94
2021/07/14 10:12:27;;;;;;;3.33;1.75;;;;;;;30.26;46.72;98874.16;5036639;28;20227;-95
2021/07/14 10:14:55;;;;;;;2.40;1.80;;;;;;;30.41;45.94;98860.22;5036743;28;20275;-94
2021/07/14 10:17:39;;;;;;;2.15;1.95;;;;;;;28.41;49.19;98866.59;5020218;28;21005;-95
2021/07/14 10:20:21;;;;;;;3.35;2.33;;;;;;;29.12;47.29;98884.81;5019984;28;20226;-94
2021/07/14 10:22:54;;;;;;;3.67;2.20;;;;;;;29.06;48.48;98892.59;5053298;28;20637;-94
2021/07/14 10:25:21;;;;;;;3.20;2.08;;;;;;;28.84;48.53;98880.25;5036520;28;20230;-88
2021/07/14 10:27:50;;;;;;;4.50;2.00;;;;;;;29.18;47.85;98894.41;5038419;28;20280;-95
2021/07/14 10:30:18;;;;;;;3.60;2.05;;;;;;;28.06;50.51;98880.19;5039482;28;20264;-94
2021/07/14 10:32:45;;;;;;;2.58;2.20;;;;;;;27.13;53.23;98815.47;5023238;28;20233;-91
2021/07/14 10:35:15;;;;;;;5.13;2.40;;;;;;;26.25;58.26;98822.53;5039853;28;20218;-94
2021/07/14 10:37:54;;;;;;;3.95;2.42;;;;;;;26.88;58.36;98850.44;5038148;28;20291;-94
2021/07/14 10:40:22;;;;;;;4.47;2.67;;;;;;;27.55;57.20;98846.16;5039347;28;20237;-92
2021/07/14 10:42:50;;;;;;;3.45;2.90;;;;;;;28.04;55.75;98824.72;5056156;28;20229;-93
2021/07/14 10:45:18;;;;;;;3.83;2.70;;;;;;;29.24;51.85;98838.63;5039867;28;20566;-94
2021/07/14 10:47:45;;;;;;;3.92;2.67;;;;;;;29.49;49.21;98836.38;5056035;28;20278;-93
2021/07/14 10:50:14;;;;;;;4.07;2.78;;;;;;;29.54;49.85;98838.06;5022809;28;20233;-94
2021/07/14 10:52:41;;;;;;;5.10;2.63;;;;;;;29.37;48.92;98861.38;5039488;28;20316;-92
2021/07/14 10:55:10;;;;;;;4.88;2.80;;;;;;;29.55;48.79;98868.06;5039613;28;20229;-92
2021/07/14 10:57:37;;;;;;;4.07;2.50;;;;;;;28.79;49.10;98885.25;5022612;28;20233;-93
2021/07/14 11:00:09;;;;;;;3.92;2.45;;;;;;;28.95;49.47;98890.75;5055382;28;20630;-94
2021/07/14 11:02:42;;;;;;;3.13;2.58;;;;;;;28.70;49.29;98884.59;5072391;28;20218;-93
2021/07/14 11:05:10;;;;;;;4.57;3.00;;;;;;;28.60;49.56;98872.19;5072466;28;20225;-93
2021/07/14 11:07:41;;;;;;;2.90;2.53;;;;;;;28.45;49.55;98871.03;5039094;28;20234;-94
2021/07/14 11:10:31;;;;;;;4.40;2.70;;;;;;;28.62;49.69;98878.13;5038758;28;20233;-94
2021/07/14 11:13:00;;;;;;;4.45;2.80;;;;;;;28.35;49.97;98859.75;5072087;28;20283;-93
2021/07/14 11:15:32;;;;;;;4.00;2.88;;;;;;;28.66;49.60;98862.47;5039269;28;20225;-94
2021/07/14 11:18:01;;;;;;;4.50;2.92;;;;;;;28.57;50.78;98848.09;5055411;28;20249;-92
2021/07/14 11:20:46;;;;;;;4.55;2.88;;;;;;;28.85;48.23;98847.97;5089043;28;20532;-92
2021/07/14 11:23:19;;;;;;;4.35;2.53;;;;;;;28.50;46.30;98858.13;5056332;28;20324;-93
2021/07/14 11:25:47;;;;;;;5.13;2.47;;;;;;;28.60;46.46;98847.38;5039615;28;20328;-93
2021/07/14 11:28:14;;;;;;;3.60;2.47;;;;;;;29.09;47.00;98842.22;5038995;28;20313;-91
2021/07/14 11:30:48;;;;;;;3.75;2.30;;;;;;;29.24;47.94;98838.63;5039624;28;20591;-94
2021/07/14 11:33:19;;;;;;;5.82;3.10;;;;;;;29.09;47.35;98833.16;5039438;28;20283;-87
2021/07/14 11:35:57;;;;;;;4.35;2.75;;;;;;;29.31;46.32;98829.72;5055802;28;20249;-91
2021/07/14 11:38:33;;;;;;;5.22;2.75;;;;;;;29.66;45.26;98832.38;5038836;28;20232;-93
2021/07/14 11:41:01;;;;;;;4.65;3.00;;;;;;;29.85;45.02;98837.88;5055672;28;20252;-93
2021/07/14 11:43:39;;;;;;;4.68;2.60;;;;;;;29.80;44.86;98826.34;5039224;28;20584;-93
2021/07/14 11:46:10;;;;;;;4.35;2.70;;;;;;;29.82;45.64;98822.03;5038651;28;20248;-91
2021/07/14 11:48:39;;;;;;;3.88;2.88;;;;;;;29.18;45.61;98825.47;5022389;28;20237;-93
2021/07/14 11:51:14;;;;;;;5.30;2.90;;;;;;;28.76;46.61;98831.63;5039055;28;20315;-94
2021/07/14 11:53:46;;;;;;;4.35;3.08;;;;;;;28.82;46.83;98821.13;5056561;28;20229;-93
2021/07/14 11:56:17;;;;;;;5.78;3.47;;;;;;;29.33;45.47;98824.63;5038739;28;20233;-92